Portada
METAR-TAF:

METAR-TAF

Aeropuertos :

Aeropuerto Internacional de Pago Pago

Pago Pago, Islas Ultramarinas Menores de Estados Unidos

latitud: 14-20S, longitud: 170-43W, altitud: 3 m

Observación

El informe se hizo hace 1 hora y 0 minutos, a las 18:52 UTC
Viento 6 kt con dirección variable
Temperatura 28°C
Humedad 79%
Presión 1012 hPa
Visibilidad: 19.3 km
Escasas nubes a una altura de 1900 ft

METAR: NSTU 211852Z VRB06KT 12SM FEW019 28/24 A2988 RMK SLP119 T02790237

Hora: 08:52 (19:52 UTC)

Pronóstico

El informe se hizo hace 2 horas y 31 minutos, a las 17:21 UTC
Pronóstico válido del 21 a las 18 UTC al 22 a las 18 UTC
Viento 11 kt del este
Visibilidad: 10 km
Nubes dispersas a una altura de 2000 ft
Cielo nuboso a una altura de 3500 ft
chaparrones en las proximidades

TAF: NSTU 211721Z 2118/2218 08011KT P6SM VCSH SCT020 BKN035

Observaciones y pronósticos meteorológicos de más de 4000 aeropuertos (mensajes METAR y TAF).

Los puntos amarillos y rojos representan las estaciones disponibles.

Ponga el ratón en el punto deseado para ver el nombre de la estación.

Haga clic para ver las observaciones y los pronósticos meteorológicos.

Para cambiar el mapa : haga clic en los botones verdes con una cruz de color negro para hacer un zoom, en el botón verde con un guión para alejar o en las flechas verdes para mapas adyacentes.


METAR-TAF: